sensor_id;sensor_type;location;lat;lon;timestamp;pressure;altitude;pressure_sealevel;temperature;humidity
65872;BME280;52653;50.080;21.992;2024-03-07T00:01:55;99596.79;;;2.05;100.00
65872;BME280;52653;50.080;21.992;2024-03-07T00:04:27;99593.55;;;2.06;100.00
65872;BME280;52653;50.080;21.992;2024-03-07T00:06:59;99593.21;;;2.07;100.00
65872;BME280;52653;50.080;21.992;2024-03-07T00:09:33;99594.41;;;2.06;100.00
65872;BME280;52653;50.080;21.992;2024-03-07T00:12:07;99589.06;;;2.07;100.00
65872;BME280;52653;50.080;21.992;2024-03-07T00:14:39;99590.12;;;2.08;100.00
65872;BME280;52653;50.080;21.992;2024-03-07T00:17:12;99589.95;;;2.08;100.00
65872;BME280;52653;50.080;21.992;2024-03-07T00:19:45;99591.20;;;2.09;100.00
65872;BME280;52653;50.080;21.992;2024-03-07T00:22:18;99588.08;;;2.09;100.00
65872;BME280;52653;50.080;21.992;2024-03-07T00:24:50;99587.77;;;2.10;100.00
65872;BME280;52653;50.080;21.992;2024-03-07T00:27:22;99583.45;;;2.10;100.00
65872;BME280;52653;50.080;21.992;2024-03-07T00:29:55;99590.20;;;2.11;100.00
65872;BME280;52653;50.080;21.992;2024-03-07T00:32:27;99590.58;;;2.11;100.00
65872;BME280;52653;50.080;21.992;2024-03-07T00:35:01;99588.89;;;2.13;100.00
65872;BME280;52653;50.080;21.992;2024-03-07T00:37:34;99589.08;;;2.13;100.00
65872;BME280;52653;50.080;21.992;2024-03-07T00:40:08;99590.45;;;2.13;100.00
65872;BME280;52653;50.080;21.992;2024-03-07T00:42:41;99586.17;;;2.15;100.00
65872;BME280;52653;50.080;21.992;2024-03-07T00:45:14;99587.37;;;2.14;100.00
65872;BME280;52653;50.080;21.992;2024-03-07T00:47:47;99587.54;;;2.14;100.00
65872;BME280;52653;50.080;21.992;2024-03-07T00:50:20;99591.01;;;2.14;100.00
65872;BME280;52653;50.080;21.992;2024-03-07T00:52:52;99590.15;;;2.14;100.00
65872;BME280;52653;50.080;21.992;2024-03-07T00:55:24;99591.39;;;2.15;100.00
65872;BME280;52653;50.080;21.992;2024-03-07T00:57:57;99595.27;;;2.17;100.00
65872;BME280;52653;50.080;21.992;2024-03-07T01:00:29;99594.92;;;2.16;100.00
65872;BME280;52653;50.080;21.992;2024-03-07T01:03:01;99589.40;;;2.17;100.00
65872;BME280;52653;50.080;21.992;2024-03-07T01:05:33;99591.30;;;2.17;100.00
65872;BME280;52653;50.080;21.992;2024-03-07T01:08:07;99596.00;;;2.18;100.00
65872;BME280;52653;50.080;21.992;2024-03-07T01:10:41;99593.42;;;2.19;100.00
65872;BME280;52653;50.080;21.992;2024-03-07T01:13:13;99590.83;;;2.18;100.00
65872;BME280;52653;50.080;21.992;2024-03-07T01:15:50;99593.08;;;2.19;100.00
65872;BME280;52653;50.080;21.992;2024-03-07T01:18:22;99590.12;;;2.18;100.00
65872;BME280;52653;50.080;21.992;2024-03-07T01:20:54;99589.10;;;2.19;100.00
65872;BME280;52653;50.080;21.992;2024-03-07T01:23:27;99591.52;;;2.19;100.00
65872;BME280;52653;50.080;21.992;2024-03-07T01:26:00;99595.48;;;2.19;100.00
65872;BME280;52653;50.080;21.992;2024-03-07T01:28:33;99592.20;;;2.18;100.00
65872;BME280;52653;50.080;21.992;2024-03-07T01:31:05;99592.73;;;2.18;100.00
65872;BME280;52653;50.080;21.992;2024-03-07T01:33:37;99598.23;;;2.18;100.00
65872;BME280;52653;50.080;21.992;2024-03-07T01:36:10;99595.96;;;2.17;100.00
65872;BME280;52653;50.080;21.992;2024-03-07T01:38:42;99597.11;;;2.15;100.00
65872;BME280;52653;50.080;21.992;2024-03-07T01:41:14;99595.34;;;2.14;100.00
65872;BME280;52653;50.080;21.992;2024-03-07T01:43:46;99593.75;;;2.14;100.00
65872;BME280;52653;50.080;21.992;2024-03-07T01:46:18;99596.50;;;2.12;100.00
65872;BME280;52653;50.080;21.992;2024-03-07T01:48:51;99594.02;;;2.10;100.00
65872;BME280;52653;50.080;21.992;2024-03-07T01:51:23;99595.18;;;2.09;100.00
65872;BME280;52653;50.080;21.992;2024-03-07T01:53:56;99595.72;;;2.10;100.00
65872;BME280;52653;50.080;21.992;2024-03-07T01:56:28;99598.11;;;2.09;100.00
65872;BME280;52653;50.080;21.992;2024-03-07T01:59:02;99595.31;;;2.08;100.00
65872;BME280;52653;50.080;21.992;2024-03-07T02:01:36;99597.85;;;2.06;100.00
65872;BME280;52653;50.080;21.992;2024-03-07T02:04:09;99601.09;;;2.04;100.00
65872;BME280;52653;50.080;21.992;2024-03-07T02:06:42;99603.08;;;2.02;100.00
65872;BME280;52653;50.080;21.992;2024-03-07T02:09:14;99603.05;;;2.01;100.00
65872;BME280;52653;50.080;21.992;2024-03-07T02:11:48;99600.80;;;2.01;100.00
65872;BME280;52653;50.080;21.992;2024-03-07T02:14:20;99601.65;;;2.01;100.00
65872;BME280;52653;50.080;21.992;2024-03-07T02:16:53;99598.96;;;1.98;100.00
65872;BME280;52653;50.080;21.992;2024-03-07T02:19:27;99598.41;;;1.97;100.00
65872;BME280;52653;50.080;21.992;2024-03-07T02:21:59;99598.37;;;1.95;100.00
65872;BME280;52653;50.080;21.992;2024-03-07T02:24:31;99599.70;;;1.93;100.00
65872;BME280;52653;50.080;21.992;2024-03-07T02:27:04;99600.89;;;1.93;100.00
65872;BME280;52653;50.080;21.992;2024-03-07T02:29:36;99595.82;;;1.91;100.00
65872;BME280;52653;50.080;21.992;2024-03-07T02:32:08;99594.19;;;1.90;100.00
65872;BME280;52653;50.080;21.992;2024-03-07T02:34:42;99592.09;;;1.89;100.00
65872;BME280;52653;50.080;21.992;2024-03-07T02:37:15;99594.83;;;1.88;100.00
65872;BME280;52653;50.080;21.992;2024-03-07T02:39:47;99590.98;;;1.87;100.00
65872;BME280;52653;50.080;21.992;2024-03-07T02:42:19;99589.92;;;1.86;100.00
65872;BME280;52653;50.080;21.992;2024-03-07T02:44:52;99593.55;;;1.86;100.00
65872;BME280;52653;50.080;21.992;2024-03-07T02:47:24;99591.79;;;1.85;100.00
65872;BME280;52653;50.080;21.992;2024-03-07T02:49:56;99591.27;;;1.85;100.00
65872;BME280;52653;50.080;21.992;2024-03-07T02:52:29;99593.66;;;1.84;100.00
65872;BME280;52653;50.080;21.992;2024-03-07T02:55:01;99594.66;;;1.83;100.00
65872;BME280;52653;50.080;21.992;2024-03-07T02:57:36;99594.79;;;1.81;100.00
65872;BME280;52653;50.080;21.992;2024-03-07T03:00:10;99592.70;;;1.81;100.00
65872;BME280;52653;50.080;21.992;2024-03-07T03:02:51;99595.27;;;1.80;100.00
65872;BME280;52653;50.080;21.992;2024-03-07T03:05:23;99595.39;;;1.78;100.00
65872;BME280;52653;50.080;21.992;2024-03-07T03:07:56;99598.08;;;1.76;100.00
65872;BME280;52653;50.080;21.992;2024-03-07T03:10:29;99599.41;;;1.75;100.00
65872;BME280;52653;50.080;21.992;2024-03-07T03:13:02;99599.73;;;1.74;100.00
65872;BME280;52653;50.080;21.992;2024-03-07T03:15:34;99597.44;;;1.72;100.00
65872;BME280;52653;50.080;21.992;2024-03-07T03:18:08;99599.83;;;1.71;100.00
65872;BME280;52653;50.080;21.992;2024-03-07T03:20:41;99603.10;;;1.71;100.00
65872;BME280;52653;50.080;21.992;2024-03-07T03:23:15;99604.11;;;1.70;100.00
65872;BME280;52653;50.080;21.992;2024-03-07T03:25:51;99605.63;;;1.69;100.00
65872;BME280;52653;50.080;21.992;2024-03-07T03:28:24;99603.32;;;1.67;100.00
65872;BME280;52653;50.080;21.992;2024-03-07T03:30:56;99610.38;;;1.66;100.00
65872;BME280;52653;50.080;21.992;2024-03-07T03:33:29;99608.41;;;1.65;100.00
65872;BME280;52653;50.080;21.992;2024-03-07T03:36:01;99610.61;;;1.64;100.00
65872;BME280;52653;50.080;21.992;2024-03-07T03:38:33;99610.96;;;1.64;100.00
65872;BME280;52653;50.080;21.992;2024-03-07T03:41:06;99611.61;;;1.63;100.00
65872;BME280;52653;50.080;21.992;2024-03-07T03:43:38;99611.92;;;1.62;100.00
65872;BME280;52653;50.080;21.992;2024-03-07T03:46:12;99613.96;;;1.61;100.00
65872;BME280;52653;50.080;21.992;2024-03-07T03:48:44;99610.98;;;1.59;100.00
65872;BME280;52653;50.080;21.992;2024-03-07T03:51:16;99613.35;;;1.58;100.00
65872;BME280;52653;50.080;21.992;2024-03-07T03:53:48;99613.65;;;1.56;100.00
65872;BME280;52653;50.080;21.992;2024-03-07T03:56:22;99613.80;;;1.55;100.00
65872;BME280;52653;50.080;21.992;2024-03-07T03:58:55;99611.36;;;1.54;100.00
65872;BME280;52653;50.080;21.992;2024-03-07T04:01:28;99611.84;;;1.54;100.00
65872;BME280;52653;50.080;21.992;2024-03-07T04:04:00;99612.14;;;1.53;100.00
65872;BME280;52653;50.080;21.992;2024-03-07T04:06:32;99616.96;;;1.52;100.00
65872;BME280;52653;50.080;21.992;2024-03-07T04:09:04;99612.23;;;1.51;100.00
65872;BME280;52653;50.080;21.992;2024-03-07T04:11:37;99617.20;;;1.49;100.00
65872;BME280;52653;50.080;21.992;2024-03-07T04:14:09;99617.33;;;1.48;100.00
65872;BME280;52653;50.080;21.992;2024-03-07T04:16:41;99620.03;;;1.46;100.00
65872;BME280;52653;50.080;21.992;2024-03-07T04:19:13;99620.84;;;1.44;100.00
65872;BME280;52653;50.080;21.992;2024-03-07T04:21:46;99625.66;;;1.44;100.00
65872;BME280;52653;50.080;21.992;2024-03-07T04:24:18;99622.64;;;1.41;100.00
65872;BME280;52653;50.080;21.992;2024-03-07T04:26:50;99623.17;;;1.41;100.00
65872;BME280;52653;50.080;21.992;2024-03-07T04:29:24;99622.96;;;1.41;100.00
65872;BME280;52653;50.080;21.992;2024-03-07T04:31:57;99623.59;;;1.39;100.00
65872;BME280;52653;50.080;21.992;2024-03-07T04:34:29;99626.16;;;1.39;100.00
65872;BME280;52653;50.080;21.992;2024-03-07T04:37:01;99625.33;;;1.39;100.00
65872;BME280;52653;50.080;21.992;2024-03-07T04:39:34;99629.07;;;1.38;100.00
65872;BME280;52653;50.080;21.992;2024-03-07T04:42:08;99632.52;;;1.38;100.00
65872;BME280;52653;50.080;21.992;2024-03-07T04:44:40;99632.99;;;1.36;100.00
65872;BME280;52653;50.080;21.992;2024-03-07T04:47:13;99635.20;;;1.35;100.00
65872;BME280;52653;50.080;21.992;2024-03-07T04:49:45;99637.93;;;1.34;100.00
65872;BME280;52653;50.080;21.992;2024-03-07T04:52:17;99639.42;;;1.32;100.00
65872;BME280;52653;50.080;21.992;2024-03-07T04:54:49;99637.71;;;1.33;100.00
65872;BME280;52653;50.080;21.992;2024-03-07T04:57:21;99640.80;;;1.32;100.00
65872;BME280;52653;50.080;21.992;2024-03-07T04:59:55;99639.89;;;1.31;100.00
65872;BME280;52653;50.080;21.992;2024-03-07T05:02:27;99639.69;;;1.30;100.00
65872;BME280;52653;50.080;21.992;2024-03-07T05:05:00;99642.95;;;1.30;100.00
65872;BME280;52653;50.080;21.992;2024-03-07T05:07:32;99642.79;;;1.30;100.00
65872;BME280;52653;50.080;21.992;2024-03-07T05:10:07;99648.14;;;1.30;100.00
65872;BME280;52653;50.080;21.992;2024-03-07T05:12:40;99650.73;;;1.30;100.00
65872;BME280;52653;50.080;21.992;2024-03-07T05:15:12;99654.73;;;1.30;100.00
65872;BME280;52653;50.080;21.992;2024-03-07T05:17:44;99656.98;;;1.30;100.00
65872;BME280;52653;50.080;21.992;2024-03-07T05:20:17;99657.65;;;1.30;100.00
65872;BME280;52653;50.080;21.992;2024-03-07T05:22:49;99662.34;;;1.31;100.00
65872;BME280;52653;50.080;21.992;2024-03-07T05:25:22;99660.61;;;1.30;100.00
65872;BME280;52653;50.080;21.992;2024-03-07T05:27:54;99665.64;;;1.31;100.00
65872;BME280;52653;50.080;21.992;2024-03-07T05:30:26;99663.90;;;1.31;100.00
65872;BME280;52653;50.080;21.992;2024-03-07T05:32:59;99667.31;;;1.29;100.00
65872;BME280;52653;50.080;21.992;2024-03-07T05:35:33;99666.62;;;1.29;100.00
65872;BME280;52653;50.080;21.992;2024-03-07T05:38:05;99669.20;;;1.29;100.00
65872;BME280;52653;50.080;21.992;2024-03-07T05:40:37;99670.58;;;1.29;100.00
65872;BME280;52653;50.080;21.992;2024-03-07T05:43:10;99674.23;;;1.29;100.00
65872;BME280;52653;50.080;21.992;2024-03-07T05:45:45;99674.39;;;1.29;100.00
65872;BME280;52653;50.080;21.992;2024-03-07T05:48:17;99677.86;;;1.29;100.00
65872;BME280;52653;50.080;21.992;2024-03-07T05:50:50;99679.41;;;1.30;100.00
65872;BME280;52653;50.080;21.992;2024-03-07T05:53:22;99683.89;;;1.29;100.00
65872;BME280;52653;50.080;21.992;2024-03-07T05:55:55;99684.59;;;1.30;100.00
65872;BME280;52653;50.080;21.992;2024-03-07T05:58:27;99684.27;;;1.30;100.00
65872;BME280;52653;50.080;21.992;2024-03-07T06:00:59;99684.58;;;1.29;100.00
65872;BME280;52653;50.080;21.992;2024-03-07T06:03:31;99686.29;;;1.28;100.00
65872;BME280;52653;50.080;21.992;2024-03-07T06:06:04;99688.36;;;1.29;100.00
65872;BME280;52653;50.080;21.992;2024-03-07T06:08:41;99687.84;;;1.29;100.00
65872;BME280;52653;50.080;21.992;2024-03-07T06:11:14;99687.64;;;1.28;100.00
65872;BME280;52653;50.080;21.992;2024-03-07T06:13:51;99687.13;;;1.28;100.00
65872;BME280;52653;50.080;21.992;2024-03-07T06:16:23;99694.03;;;1.28;100.00
65872;BME280;52653;50.080;21.992;2024-03-07T06:18:58;99692.63;;;1.28;100.00
65872;BME280;52653;50.080;21.992;2024-03-07T06:21:30;99690.72;;;1.27;99.99
65872;BME280;52653;50.080;21.992;2024-03-07T06:24:03;99697.14;;;1.28;100.00
65872;BME280;52653;50.080;21.992;2024-03-07T06:26:39;99697.54;;;1.29;100.00
65872;BME280;52653;50.080;21.992;2024-03-07T06:29:19;99700.02;;;1.31;100.00
65872;BME280;52653;50.080;21.992;2024-03-07T06:31:51;99700.40;;;1.32;100.00
65872;BME280;52653;50.080;21.992;2024-03-07T06:34:24;99704.58;;;1.33;100.00
65872;BME280;52653;50.080;21.992;2024-03-07T06:36:58;99707.05;;;1.34;100.00
65872;BME280;52653;50.080;21.992;2024-03-07T06:39:30;99707.06;;;1.34;100.00
65872;BME280;52653;50.080;21.992;2024-03-07T06:42:03;99711.42;;;1.36;100.00
65872;BME280;52653;50.080;21.992;2024-03-07T06:44:36;99710.86;;;1.34;100.00
65872;BME280;52653;50.080;21.992;2024-03-07T06:47:08;99716.56;;;1.34;100.00
65872;BME280;52653;50.080;21.992;2024-03-07T06:49:40;99716.70;;;1.33;99.93
65872;BME280;52653;50.080;21.992;2024-03-07T06:52:12;99717.20;;;1.33;99.98
65872;BME280;52653;50.080;21.992;2024-03-07T06:54:46;99719.11;;;1.33;99.97
65872;BME280;52653;50.080;21.992;2024-03-07T06:57:19;99721.72;;;1.34;100.00
65872;BME280;52653;50.080;21.992;2024-03-07T06:59:51;99719.64;;;1.34;99.91
65872;BME280;52653;50.080;21.992;2024-03-07T07:02:23;99727.98;;;1.35;100.00
65872;BME280;52653;50.080;21.992;2024-03-07T07:04:57;99729.70;;;1.35;99.92
65872;BME280;52653;50.080;21.992;2024-03-07T07:07:29;99732.46;;;1.35;99.88
65872;BME280;52653;50.080;21.992;2024-03-07T07:10:03;99732.27;;;1.34;99.48
65872;BME280;52653;50.080;21.992;2024-03-07T07:12:35;99732.95;;;1.34;99.38
65872;BME280;52653;50.080;21.992;2024-03-07T07:15:08;99731.73;;;1.34;99.13
65872;BME280;52653;50.080;21.992;2024-03-07T07:17:41;99738.15;;;1.34;98.95
65872;BME280;52653;50.080;21.992;2024-03-07T07:20:16;99738.67;;;1.34;98.88
65872;BME280;52653;50.080;21.992;2024-03-07T07:22:49;99741.13;;;1.35;99.01
65872;BME280;52653;50.080;21.992;2024-03-07T07:25:21;99741.18;;;1.37;99.12
65872;BME280;52653;50.080;21.992;2024-03-07T07:27:55;99750.73;;;1.38;99.13
65872;BME280;52653;50.080;21.992;2024-03-07T07:30:27;99748.76;;;1.40;99.00
65872;BME280;52653;50.080;21.992;2024-03-07T07:33:00;99750.52;;;1.41;98.84
65872;BME280;52653;50.080;21.992;2024-03-07T07:35:33;99757.83;;;1.42;98.63
65872;BME280;52653;50.080;21.992;2024-03-07T07:38:06;99758.86;;;1.42;98.16
65872;BME280;52653;50.080;21.992;2024-03-07T07:40:41;99763.23;;;1.43;98.19
65872;BME280;52653;50.080;21.992;2024-03-07T07:43:16;99761.58;;;1.46;98.40
65872;BME280;52653;50.080;21.992;2024-03-07T07:46:06;99768.92;;;1.48;98.07
65872;BME280;52653;50.080;21.992;2024-03-07T07:48:38;99770.09;;;1.47;97.14
65872;BME280;52653;50.080;21.992;2024-03-07T07:51:12;99770.23;;;1.46;96.94
65872;BME280;52653;50.080;21.992;2024-03-07T07:53:45;99768.84;;;1.46;96.99
65872;BME280;52653;50.080;21.992;2024-03-07T07:56:18;99771.27;;;1.46;96.84
65872;BME280;52653;50.080;21.992;2024-03-07T07:58:52;99771.15;;;1.47;97.05
65872;BME280;52653;50.080;21.992;2024-03-07T08:01:24;99772.23;;;1.49;96.93
65872;BME280;52653;50.080;21.992;2024-03-07T08:03:57;99773.61;;;1.49;96.80
65872;BME280;52653;50.080;21.992;2024-03-07T08:06:32;99775.69;;;1.49;96.82
65872;BME280;52653;50.080;21.992;2024-03-07T08:09:04;99775.02;;;1.50;96.82
65872;BME280;52653;50.080;21.992;2024-03-07T08:11:41;99777.83;;;1.51;97.21
65872;BME280;52653;50.080;21.992;2024-03-07T08:14:13;99778.11;;;1.54;97.07
65872;BME280;52653;50.080;21.992;2024-03-07T08:16:49;99778.38;;;1.56;96.68
65872;BME280;52653;50.080;21.992;2024-03-07T08:19:22;99780.18;;;1.58;96.26
65872;BME280;52653;50.080;21.992;2024-03-07T08:21:55;99783.27;;;1.62;96.25
65872;BME280;52653;50.080;21.992;2024-03-07T08:24:28;99784.48;;;1.67;96.28
65872;BME280;52653;50.080;21.992;2024-03-07T08:27:00;99781.85;;;1.70;95.83
65872;BME280;52653;50.080;21.992;2024-03-07T08:29:33;99780.14;;;1.75;95.42
65872;BME280;52653;50.080;21.992;2024-03-07T08:32:08;99779.34;;;1.82;95.34
65872;BME280;52653;50.080;21.992;2024-03-07T08:34:41;99778.38;;;1.89;95.07
65872;BME280;52653;50.080;21.992;2024-03-07T08:37:13;99780.33;;;1.95;94.22
65872;BME280;52653;50.080;21.992;2024-03-07T08:39:45;99777.23;;;2.01;93.43
65872;BME280;52653;50.080;21.992;2024-03-07T08:42:17;99779.16;;;2.06;93.03
65872;BME280;52653;50.080;21.992;2024-03-07T08:44:50;99779.76;;;2.14;92.90
65872;BME280;52653;50.080;21.992;2024-03-07T08:47:23;99780.77;;;2.22;92.99
65872;BME280;52653;50.080;21.992;2024-03-07T08:49:55;99784.30;;;2.30;92.14
65872;BME280;52653;50.080;21.992;2024-03-07T08:52:28;99784.79;;;2.33;91.90
65872;BME280;52653;50.080;21.992;2024-03-07T08:55:01;99783.91;;;2.33;91.22
65872;BME280;52653;50.080;21.992;2024-03-07T08:57:33;99789.32;;;2.34;91.06
65872;BME280;52653;50.080;21.992;2024-03-07T09:00:07;99790.69;;;2.34;90.43
65872;BME280;52653;50.080;21.992;2024-03-07T09:02:40;99789.52;;;2.35;90.41
65872;BME280;52653;50.080;21.992;2024-03-07T09:05:13;99789.73;;;2.36;89.72
65872;BME280;52653;50.080;21.992;2024-03-07T09:07:46;99788.14;;;2.41;89.82
65872;BME280;52653;50.080;21.992;2024-03-07T09:10:19;99790.73;;;2.45;89.08
65872;BME280;52653;50.080;21.992;2024-03-07T09:12:52;99794.73;;;2.51;88.46
65872;BME280;52653;50.080;21.992;2024-03-07T09:15:26;99793.13;;;2.60;88.43
65872;BME280;52653;50.080;21.992;2024-03-07T09:17:59;99793.36;;;2.67;87.70
65872;BME280;52653;50.080;21.992;2024-03-07T09:20:35;99798.24;;;2.73;87.56
65872;BME280;52653;50.080;21.992;2024-03-07T09:23:07;99795.98;;;2.78;87.33
65872;BME280;52653;50.080;21.992;2024-03-07T09:25:40;99797.17;;;2.82;86.91
65872;BME280;52653;50.080;21.992;2024-03-07T09:28:13;99801.80;;;2.87;86.28
65872;BME280;52653;50.080;21.992;2024-03-07T09:30:46;99805.21;;;2.96;86.33
65872;BME280;52653;50.080;21.992;2024-03-07T09:33:18;99810.02;;;3.05;86.67
65872;BME280;52653;50.080;21.992;2024-03-07T09:35:50;99810.48;;;3.14;86.71
65872;BME280;52653;50.080;21.992;2024-03-07T09:38:23;99813.42;;;3.25;85.92
65872;BME280;52653;50.080;21.992;2024-03-07T09:40:56;99813.08;;;3.36;85.34
65872;BME280;52653;50.080;21.992;2024-03-07T09:43:29;99807.63;;;3.45;84.92
65872;BME280;52653;50.080;21.992;2024-03-07T09:46:04;99810.54;;;3.50;83.73
65872;BME280;52653;50.080;21.992;2024-03-07T09:48:37;99811.47;;;3.58;84.09
65872;BME280;52653;50.080;21.992;2024-03-07T09:51:11;99815.45;;;3.69;83.10
65872;BME280;52653;50.080;21.992;2024-03-07T09:53:45;99818.08;;;3.82;82.62
65872;BME280;52653;50.080;21.992;2024-03-07T09:56:21;99814.73;;;3.92;81.88
65872;BME280;52653;50.080;21.992;2024-03-07T09:58:56;99814.35;;;4.03;81.48
65872;BME280;52653;50.080;21.992;2024-03-07T10:01:32;99814.56;;;4.10;81.55
65872;BME280;52653;50.080;21.992;2024-03-07T10:04:13;99813.76;;;4.19;81.83
65872;BME280;52653;50.080;21.992;2024-03-07T10:06:45;99813.67;;;4.29;81.52
65872;BME280;52653;50.080;21.992;2024-03-07T10:09:18;99814.61;;;4.38;81.16
65872;BME280;52653;50.080;21.992;2024-03-07T10:11:58;99810.98;;;4.51;81.49
65872;BME280;52653;50.080;21.992;2024-03-07T10:14:33;99814.16;;;4.66;81.35
65872;BME280;52653;50.080;21.992;2024-03-07T10:17:06;99812.97;;;4.75;78.80
65872;BME280;52653;50.080;21.992;2024-03-07T10:19:41;99810.40;;;4.83;78.96
65872;BME280;52653;50.080;21.992;2024-03-07T10:22:15;99803.92;;;4.95;78.05
65872;BME280;52653;50.080;21.992;2024-03-07T10:24:52;99803.52;;;5.08;77.98
65872;BME280;52653;50.080;21.992;2024-03-07T10:27:27;99805.33;;;5.18;77.45
65872;BME280;52653;50.080;21.992;2024-03-07T10:30:00;99807.55;;;5.24;76.88
65872;BME280;52653;50.080;21.992;2024-03-07T10:32:33;99807.73;;;5.31;76.56
65872;BME280;52653;50.080;21.992;2024-03-07T10:35:08;99809.63;;;5.39;75.59
65872;BME280;52653;50.080;21.992;2024-03-07T10:37:41;99809.23;;;5.45;75.33
65872;BME280;52653;50.080;21.992;2024-03-07T10:40:16;99811.71;;;5.46;74.66
65872;BME280;52653;50.080;21.992;2024-03-07T10:42:49;99813.89;;;5.43;73.90
65872;BME280;52653;50.080;21.992;2024-03-07T10:45:24;99812.16;;;5.43;74.38
65872;BME280;52653;50.080;21.992;2024-03-07T10:48:00;99809.46;;;5.54;73.91
65872;BME280;52653;50.080;21.992;2024-03-07T10:50:47;99812.62;;;5.71;73.67
65872;BME280;52653;50.080;21.992;2024-03-07T10:53:29;99809.11;;;5.79;72.64
65872;BME280;52653;50.080;21.992;2024-03-07T10:56:26;99811.15;;;5.84;73.10
65872;BME280;52653;50.080;21.992;2024-03-07T10:59:07;99812.84;;;5.97;73.28
65872;BME280;52653;50.080;21.992;2024-03-07T11:01:47;99809.93;;;5.99;71.97
65872;BME280;52653;50.080;21.992;2024-03-07T11:04:25;99814.44;;;5.99;71.37
65872;BME280;52653;50.080;21.992;2024-03-07T11:06:57;99816.41;;;5.94;71.37
65872;BME280;52653;50.080;21.992;2024-03-07T11:09:34;99812.30;;;5.96;72.41
65872;BME280;52653;50.080;21.992;2024-03-07T11:12:08;99813.21;;;6.07;72.43
65872;BME280;52653;50.080;21.992;2024-03-07T11:14:44;99813.91;;;6.15;72.39
65872;BME280;52653;50.080;21.992;2024-03-07T11:17:18;99816.11;;;6.22;71.00
65872;BME280;52653;50.080;21.992;2024-03-07T11:19:52;99819.36;;;6.27;71.09
65872;BME280;52653;50.080;21.992;2024-03-07T11:22:31;99818.15;;;6.37;71.08
65872;BME280;52653;50.080;21.992;2024-03-07T11:25:06;99812.01;;;6.34;69.63
65872;BME280;52653;50.080;21.992;2024-03-07T11:27:39;99814.88;;;6.38;70.46
65872;BME280;52653;50.080;21.992;2024-03-07T11:30:14;99816.02;;;6.44;71.09
65872;BME280;52653;50.080;21.992;2024-03-07T11:32:49;99812.52;;;6.53;70.41
65872;BME280;52653;50.080;21.992;2024-03-07T11:35:33;99813.28;;;6.57;69.19
65872;BME280;52653;50.080;21.992;2024-03-07T11:38:08;99812.59;;;6.57;68.73
65872;BME280;52653;50.080;21.992;2024-03-07T11:40:48;99814.95;;;6.62;69.13
65872;BME280;52653;50.080;21.992;2024-03-07T11:43:22;99816.09;;;6.67;68.32
65872;BME280;52653;50.080;21.992;2024-03-07T11:45:59;99812.50;;;6.71;68.70
65872;BME280;52653;50.080;21.992;2024-03-07T11:48:31;99810.30;;;6.75;69.07
65872;BME280;52653;50.080;21.992;2024-03-07T11:51:04;99808.16;;;6.83;69.08
65872;BME280;52653;50.080;21.992;2024-03-07T11:53:39;99808.95;;;6.87;68.06
65872;BME280;52653;50.080;21.992;2024-03-07T11:56:12;99799.22;;;6.89;68.76
65872;BME280;52653;50.080;21.992;2024-03-07T11:58:48;99799.98;;;6.94;68.59
65872;BME280;52653;50.080;21.992;2024-03-07T12:01:27;99795.80;;;6.95;68.06
65872;BME280;52653;50.080;21.992;2024-03-07T12:04:02;99798.31;;;6.98;68.10
65872;BME280;52653;50.080;21.992;2024-03-07T12:06:37;99796.27;;;7.01;68.66
65872;BME280;52653;50.080;21.992;2024-03-07T12:09:11;99795.66;;;7.07;69.14
65872;BME280;52653;50.080;21.992;2024-03-07T12:11:54;99797.76;;;7.19;68.27
65872;BME280;52653;50.080;21.992;2024-03-07T12:14:31;99795.17;;;7.21;66.35
65872;BME280;52653;50.080;21.992;2024-03-07T12:17:05;99794.31;;;7.22;66.23
65872;BME280;52653;50.080;21.992;2024-03-07T12:19:37;99796.40;;;7.22;66.40
65872;BME280;52653;50.080;21.992;2024-03-07T12:22:11;99795.16;;;7.19;66.66
65872;BME280;52653;50.080;21.992;2024-03-07T12:25:02;99795.28;;;7.16;66.85
65872;BME280;52653;50.080;21.992;2024-03-07T12:27:39;99795.29;;;7.16;67.14
65872;BME280;52653;50.080;21.992;2024-03-07T12:30:17;99795.44;;;7.15;67.33
65872;BME280;52653;50.080;21.992;2024-03-07T12:32:49;99792.13;;;7.15;67.17
65872;BME280;52653;50.080;21.992;2024-03-07T12:35:21;99796.25;;;7.11;66.28
65872;BME280;52653;50.080;21.992;2024-03-07T12:37:55;99800.16;;;7.04;67.18
65872;BME280;52653;50.080;21.992;2024-03-07T12:40:28;99793.52;;;7.04;68.00
65872;BME280;52653;50.080;21.992;2024-03-07T12:43:14;99796.58;;;7.09;68.03
65872;BME280;52653;50.080;21.992;2024-03-07T12:45:49;99797.34;;;7.13;66.89
65872;BME280;52653;50.080;21.992;2024-03-07T12:48:22;99796.59;;;7.11;66.61
65872;BME280;52653;50.080;21.992;2024-03-07T12:50:54;99793.77;;;7.08;66.58
65872;BME280;52653;50.080;21.992;2024-03-07T12:53:28;99793.10;;;6.88;65.60
65872;BME280;52653;50.080;21.992;2024-03-07T12:56:02;99799.45;;;6.73;66.61
65872;BME280;52653;50.080;21.992;2024-03-07T12:58:35;99797.64;;;6.69;67.28
65872;BME280;52653;50.080;21.992;2024-03-07T13:01:07;99801.31;;;6.70;66.94
65872;BME280;52653;50.080;21.992;2024-03-07T13:03:40;99797.01;;;6.72;66.67
65872;BME280;52653;50.080;21.992;2024-03-07T13:06:16;99797.29;;;6.78;67.06
65872;BME280;52653;50.080;21.992;2024-03-07T13:08:57;99796.16;;;6.74;66.37
65872;BME280;52653;50.080;21.992;2024-03-07T13:11:30;99799.43;;;6.71;67.21
65872;BME280;52653;50.080;21.992;2024-03-07T13:14:03;99802.38;;;6.70;66.09
65872;BME280;52653;50.080;21.992;2024-03-07T13:16:36;99796.13;;;6.61;66.19
65872;BME280;52653;50.080;21.992;2024-03-07T13:19:09;99800.06;;;6.58;67.22
65872;BME280;52653;50.080;21.992;2024-03-07T13:21:43;99795.62;;;6.53;66.90
65872;BME280;52653;50.080;21.992;2024-03-07T13:24:15;99795.98;;;6.44;66.60
65872;BME280;52653;50.080;21.992;2024-03-07T13:26:48;99793.46;;;6.39;66.75
65872;BME280;52653;50.080;21.992;2024-03-07T13:29:21;99793.34;;;6.33;67.19